createdAt,value
2022-11-05T00:00:07.352Z,101373.66
2022-11-05T00:02:27.787Z,101371.03
2022-11-05T00:04:47.703Z,101374.56
2022-11-05T00:07:07.968Z,101372.81
2022-11-05T00:09:29.588Z,101372.81
2022-11-05T00:11:50.155Z,101376.31
2022-11-05T00:14:09.956Z,101376.28
2022-11-05T00:16:29.735Z,101372.78
2022-11-05T00:18:31.239Z,101380.66
2022-11-05T00:20:32.713Z,101375.44
2022-11-05T00:22:52.416Z,101385.91
2022-11-05T00:25:12.150Z,101378.06
2022-11-05T00:27:13.577Z,101385.06
2022-11-05T00:29:15.096Z,101393.81
2022-11-05T00:31:16.532Z,101386.81
2022-11-05T00:33:18.133Z,101394.69
2022-11-05T00:35:22.559Z,101388.56
2022-11-05T00:37:24.184Z,101393.81
2022-11-05T00:39:25.648Z,101394.69
2022-11-05T00:41:27.081Z,101398.19
2022-11-05T00:43:47.078Z,101389.47
2022-11-05T00:45:48.729Z,101394.72
2022-11-05T00:48:08.631Z,101397.34
2022-11-05T00:50:10.766Z,101406.97
2022-11-05T00:52:44.424Z,101400.84
2022-11-05T00:54:45.882Z,101400.84
2022-11-05T00:56:47.290Z,101400.84
2022-11-05T00:58:48.978Z,101403.44
2022-11-05T01:00:55.242Z,101405.19
2022-11-05T01:03:01.945Z,101410.44
2022-11-05T01:05:03.944Z,101414.81
2022-11-05T01:07:05.356Z,101422.66
2022-11-05T01:09:06.794Z,101411.31
2022-11-05T01:11:33.099Z,101420.91
2022-11-05T01:13:34.943Z,101424.41
2022-11-05T01:15:37.778Z,101427.03
2022-11-05T01:17:39.216Z,101429.63
2022-11-05T01:19:40.628Z,101429.63
2022-11-05T01:21:42.088Z,101438.34
2022-11-05T01:23:44.601Z,101436.59
2022-11-05T01:25:46.383Z,101441.84
2022-11-05T01:27:47.838Z,101439.22
2022-11-05T01:29:49.277Z,101434.84
2022-11-05T01:31:50.714Z,101438.34
2022-11-05T01:33:52.428Z,101435.72
2022-11-05T01:35:53.940Z,101435.72
2022-11-05T01:37:55.415Z,101439.22
2022-11-05T01:39:56.966Z,101436.59
2022-11-05T01:41:58.843Z,101439.22
2022-11-05T01:44:00.354Z,101437.47
2022-11-05T01:46:01.819Z,101437.47
2022-11-05T01:48:21.306Z,101439.22
2022-11-05T01:50:28.946Z,101443.53
2022-11-05T01:52:34.962Z,101441.78
2022-11-05T01:54:36.487Z,101452.28
2022-11-05T01:56:46.413Z,101446.16
2022-11-05T01:58:52.753Z,101445.28
2022-11-05T02:00:56.535Z,101447.91
2022-11-05T02:02:58.104Z,101446.13
2022-11-05T02:05:03.155Z,101450.50
2022-11-05T02:07:07.654Z,101442.66
2022-11-05T02:09:36.605Z,101439.16
2022-11-05T02:11:38.248Z,101434.78
2022-11-05T02:13:40.685Z,101441.75
2022-11-05T02:16:02.797Z,101438.28
2022-11-05T02:18:20.431Z,101435.66
2022-11-05T02:20:30.657Z,101422.56
2022-11-05T02:22:44.201Z,101432.16
2022-11-05T02:24:54.808Z,101432.16
2022-11-05T02:27:05.282Z,101440.00
2022-11-05T02:29:21.077Z,101432.13
2022-11-05T02:31:25.414Z,101441.72
2022-11-05T02:33:56.779Z,101446.09
2022-11-05T02:36:09.270Z,101451.31
2022-11-05T02:38:24.008Z,101459.19
2022-11-05T02:40:28.482Z,101459.19
2022-11-05T02:42:42.349Z,101460.06
2022-11-05T02:44:52.563Z,101453.06
2022-11-05T02:47:06.821Z,101459.19
2022-11-05T02:49:30.138Z,101448.72
2022-11-05T02:51:36.111Z,101448.69
2022-11-05T02:53:57.030Z,101448.69
2022-11-05T02:56:15.934Z,101446.03
2022-11-05T02:58:17.350Z,101453.00
2022-11-05T03:00:37.313Z,101444.28
2022-11-05T03:02:38.883Z,101452.13
2022-11-05T03:04:40.860Z,101454.75
2022-11-05T03:07:22.478Z,101450.38
2022-11-05T03:09:59.303Z,101453.00
2022-11-05T03:12:38.143Z,101454.72
2022-11-05T03:14:58.056Z,101458.19
2022-11-05T03:17:16.360Z,101463.44
2022-11-05T03:19:27.508Z,101466.06
2022-11-05T03:21:52.671Z,101468.69
2022-11-05T03:23:58.664Z,101466.09
2022-11-05T03:26:10.407Z,101457.38
2022-11-05T03:28:13.655Z,101464.34
2022-11-05T03:30:18.465Z,101463.47
2022-11-05T03:32:22.482Z,101460.91
2022-11-05T03:34:35.324Z,101465.28
2022-11-05T03:36:46.977Z,101465.28
2022-11-05T03:38:53.185Z,101467.03
2022-11-05T03:40:59.025Z,101468.78
2022-11-05T03:43:02.267Z,101471.41
2022-11-05T03:45:11.204Z,101467.91
2022-11-05T03:47:17.231Z,101474.03
2022-11-05T03:49:27.873Z,101472.28
2022-11-05T03:51:42.274Z,101476.66
2022-11-05T03:53:49.048Z,101467.94
2022-11-05T03:56:03.428Z,101471.44
2022-11-05T03:58:06.043Z,101478.41
2022-11-05T04:00:09.886Z,101473.16
2022-11-05T04:02:14.081Z,101488.00
2022-11-05T04:04:15.654Z,101489.75
2022-11-05T04:06:35.711Z,101487.13
2022-11-05T04:08:55.609Z,101488.88
2022-11-05T04:11:15.314Z,101483.63
2022-11-05T04:13:25.712Z,101487.09
2022-11-05T04:15:29.542Z,101486.22
2022-11-05T04:17:30.978Z,101489.66
2022-11-05T04:19:52.562Z,101486.16
2022-11-05T04:22:12.371Z,101492.25
2022-11-05T04:24:14.681Z,101494.84
2022-11-05T04:26:16.199Z,101494.84
2022-11-05T04:28:17.854Z,101492.22
2022-11-05T04:30:20.340Z,101494.81
2022-11-05T04:32:21.910Z,101493.94
2022-11-05T04:34:23.739Z,101499.16
2022-11-05T04:36:25.211Z,101494.78
2022-11-05T04:38:26.632Z,101505.25
2022-11-05T04:40:28.664Z,101501.75
2022-11-05T04:42:30.134Z,101504.38
2022-11-05T04:44:31.549Z,101497.41
2022-11-05T04:46:32.984Z,101493.03
2022-11-05T04:48:34.786Z,101501.75
2022-11-05T04:50:36.267Z,101504.34
2022-11-05T04:52:37.938Z,101506.97
2022-11-05T04:54:39.342Z,101504.34
2022-11-05T04:56:40.799Z,101503.47
2022-11-05T04:58:42.836Z,101506.97
2022-11-05T05:00:44.268Z,101501.72
2022-11-05T05:02:46.289Z,101506.09
2022-11-05T05:04:47.737Z,101501.72
2022-11-05T05:06:49.200Z,101501.72
2022-11-05T05:08:51.433Z,101503.47
2022-11-05T05:10:52.986Z,101502.59
2022-11-05T05:12:54.447Z,101515.66
2022-11-05T05:14:55.876Z,101511.28
2022-11-05T05:16:57.361Z,101512.16
2022-11-05T05:18:58.797Z,101515.63
2022-11-05T05:21:18.967Z,101515.63
2022-11-05T05:23:20.362Z,101526.97
2022-11-05T05:25:22.471Z,101526.09
2022-11-05T05:27:24.382Z,101531.34
2022-11-05T05:29:25.805Z,101533.09
2022-11-05T05:31:27.240Z,101528.72
2022-11-05T05:33:28.743Z,101526.09
2022-11-05T05:35:31.060Z,101519.97
2022-11-05T05:37:32.477Z,101533.88
2022-11-05T05:39:33.901Z,101533.00
2022-11-05T05:41:35.325Z,101534.75
2022-11-05T05:43:36.861Z,101550.44
2022-11-05T05:45:39.232Z,101536.47
2022-11-05T05:47:40.719Z,101545.19
2022-11-05T05:49:42.142Z,101550.41
2022-11-05T05:51:43.657Z,101546.06
2022-11-05T05:53:45.216Z,101545.16
2022-11-05T05:55:46.668Z,101544.28
2022-11-05T05:57:48.076Z,101545.16
2022-11-05T05:59:49.532Z,101549.47
2022-11-05T06:01:51.000Z,101547.72
2022-11-05T06:03:52.501Z,101544.22
2022-11-05T06:05:53.936Z,101556.41
2022-11-05T06:07:57.143Z,101553.78
2022-11-05T06:09:58.585Z,101556.41
2022-11-05T06:12:00.032Z,101559.91
2022-11-05T06:14:02.217Z,101564.28
2022-11-05T06:16:06.475Z,101565.16
2022-11-05T06:18:07.996Z,101562.53
2022-11-05T06:20:10.504Z,101561.63
2022-11-05T06:22:11.921Z,101562.50
2022-11-05T06:24:13.346Z,101561.59
2022-11-05T06:26:17.878Z,101563.34
2022-11-05T06:28:19.287Z,101562.44
2022-11-05T06:30:21.712Z,101568.53
2022-11-05T06:32:23.581Z,101566.81
2022-11-05T06:34:25.002Z,101562.47
2022-11-05T06:36:26.410Z,101571.19
2022-11-05T06:38:29.327Z,101580.81
2022-11-05T06:40:30.760Z,101567.78
2022-11-05T06:42:32.303Z,101574.78
2022-11-05T06:44:33.761Z,101579.13
2022-11-05T06:46:35.269Z,101577.38
2022-11-05T06:48:36.782Z,101590.44
2022-11-05T06:50:38.233Z,101585.22
2022-11-05T06:52:41.190Z,101588.69
2022-11-05T06:54:43.873Z,101594.81
2022-11-05T06:56:45.346Z,101597.47
2022-11-05T06:58:46.749Z,101602.72
2022-11-05T07:00:48.327Z,101612.31
2022-11-05T07:02:50.174Z,101606.25
2022-11-05T07:04:51.610Z,101614.97
2022-11-05T07:06:53.053Z,101615.03
2022-11-05T07:08:54.544Z,101624.63
2022-11-05T07:10:55.967Z,101630.75
2022-11-05T07:12:57.433Z,101629.00
2022-11-05T07:14:59.080Z,101622.06
2022-11-05T07:17:00.636Z,101633.44
2022-11-05T07:19:02.083Z,101634.34
2022-11-05T07:21:03.757Z,101632.63
2022-11-05T07:23:07.967Z,101632.63
2022-11-05T07:25:09.713Z,101623.94
2022-11-05T07:27:11.140Z,101623.09
2022-11-05T07:29:12.561Z,101628.34
2022-11-05T07:31:14.032Z,101626.63
2022-11-05T07:33:15.567Z,101628.41
2022-11-05T07:35:17.212Z,101628.44
2022-11-05T07:37:18.692Z,101630.25
2022-11-05T07:39:20.241Z,101639.88
2022-11-05T07:41:21.710Z,101625.94
2022-11-05T07:43:23.117Z,101639.06
2022-11-05T07:45:25.747Z,101634.75
2022-11-05T07:47:27.177Z,101633.06
2022-11-05T07:49:28.635Z,101634.84
2022-11-05T07:51:30.051Z,101629.63
2022-11-05T07:53:31.513Z,101630.53
2022-11-05T07:55:33.346Z,101632.31
2022-11-05T07:57:43.050Z,101630.59
2022-11-05T07:59:44.507Z,101641.09
2022-11-05T08:01:46.111Z,101639.41
2022-11-05T08:03:47.705Z,101636.78
2022-11-05T08:05:49.708Z,101641.16
2022-11-05T08:07:52.911Z,101645.56
2022-11-05T08:09:54.319Z,101639.44
2022-11-05T08:12:01.610Z,101640.31
2022-11-05T08:14:04.416Z,101635.09
2022-11-05T08:16:06.049Z,101633.38
2022-11-05T08:18:11.446Z,101633.38
2022-11-05T08:20:14.486Z,101640.38
2022-11-05T08:22:16.000Z,101635.13
2022-11-05T08:24:17.396Z,101641.25
2022-11-05T08:26:19.570Z,101636.00
2022-11-05T08:28:21.902Z,101642.13
2022-11-05T08:30:23.888Z,101649.16
2022-11-05T08:32:25.332Z,101648.28
2022-11-05T08:34:26.773Z,101645.63
2022-11-05T08:36:28.193Z,101651.75
2022-11-05T08:38:29.892Z,101653.50
2022-11-05T08:40:33.711Z,101651.75
2022-11-05T08:42:35.148Z,101656.09
2022-11-05T08:44:36.552Z,101653.50
2022-11-05T08:46:41.555Z,101647.34
2022-11-05T08:48:43.302Z,101653.47
2022-11-05T08:50:46.825Z,101656.94
2022-11-05T08:52:48.266Z,101659.56
2022-11-05T08:54:49.698Z,101659.53
2022-11-05T08:56:51.155Z,101655.13
2022-11-05T08:58:52.657Z,101652.47
2022-11-05T09:00:54.235Z,101656.88
2022-11-05T09:02:59.009Z,101657.72
2022-11-05T09:05:00.458Z,101654.19
2022-11-05T09:07:01.888Z,101649.78
2022-11-05T09:09:03.359Z,101655.00
2022-11-05T09:11:04.878Z,101652.31
2022-11-05T09:13:08.730Z,101653.19
2022-11-05T09:15:12.395Z,101663.69
2022-11-05T09:17:23.240Z,101661.03
2022-11-05T09:19:24.772Z,101662.75
2022-11-05T09:21:26.175Z,101662.72
2022-11-05T09:23:27.612Z,101663.53
2022-11-05T09:25:29.155Z,101660.00
2022-11-05T09:27:30.596Z,101663.47
2022-11-05T09:29:32.061Z,101665.22
2022-11-05T09:31:33.492Z,101664.31
2022-11-05T09:33:36.665Z,101661.63
2022-11-05T09:35:39.861Z,101665.09
2022-11-05T09:37:41.365Z,101657.16
2022-11-05T09:39:42.795Z,101665.03
2022-11-05T09:41:46.884Z,101668.47
2022-11-05T09:43:53.462Z,101658.75
2022-11-05T09:45:57.840Z,101667.50
2022-11-05T09:48:05.416Z,101670.94
2022-11-05T09:50:13.842Z,101663.84
2022-11-05T09:52:21.317Z,101662.91
2022-11-05T09:54:31.489Z,101662.84
2022-11-05T09:56:37.310Z,101664.50
2022-11-05T09:58:48.373Z,101664.44
2022-11-05T10:00:52.761Z,101665.25
2022-11-05T10:03:11.795Z,101668.69
2022-11-05T10:05:14.732Z,101667.72
2022-11-05T10:07:20.353Z,101678.16
2022-11-05T10:09:35.150Z,101675.44
2022-11-05T10:11:48.032Z,101675.34
2022-11-05T10:14:21.197Z,101680.50
2022-11-05T10:16:30.875Z,101681.31
2022-11-05T10:18:39.583Z,101681.19
2022-11-05T10:20:42.759Z,101681.09
2022-11-05T10:22:49.330Z,101684.56
2022-11-05T10:24:52.447Z,101688.81
2022-11-05T10:26:54.960Z,101685.16
2022-11-05T10:28:56.686Z,101689.34
2022-11-05T10:31:04.712Z,101687.38
2022-11-05T10:33:08.148Z,101687.19
2022-11-05T10:35:18.333Z,101687.81
2022-11-05T10:37:21.539Z,101691.06
2022-11-05T10:39:24.966Z,101691.72
2022-11-05T10:41:33.563Z,101689.59
2022-11-05T10:43:51.116Z,101691.88
2022-11-05T10:46:27.735Z,101679.00
2022-11-05T10:48:56.069Z,101685.28
2022-11-05T10:50:57.651Z,101690.56
2022-11-05T10:53:00.578Z,101684.63
2022-11-05T10:55:11.150Z,101691.63
2022-11-05T10:57:42.021Z,101691.28
2022-11-05T10:59:43.452Z,101706.59
2022-11-05T11:01:45.269Z,101695.63
2022-11-05T11:03:51.084Z,101694.69
2022-11-05T11:05:59.832Z,101688.22
2022-11-05T11:08:03.711Z,101697.47
2022-11-05T11:10:05.592Z,101683.97
2022-11-05T11:12:21.871Z,101694.13
2022-11-05T11:14:23.328Z,101696.00
2022-11-05T11:16:28.490Z,101686.78
2022-11-05T11:18:40.057Z,101689.41
2022-11-05T11:20:45.793Z,101696.63
2022-11-05T11:23:12.470Z,101695.53
2022-11-05T11:25:40.204Z,101685.91
2022-11-05T11:27:41.686Z,101696.34
2022-11-05T11:29:49.513Z,101680.94
2022-11-05T11:31:54.817Z,101677.63
2022-11-05T11:34:03.126Z,101684.63
2022-11-05T11:36:06.255Z,101684.16
2022-11-05T11:38:14.565Z,101685.13
2022-11-05T11:40:23.219Z,101687.06
2022-11-05T11:42:24.592Z,101682.09
2022-11-05T11:44:31.086Z,101685.25
2022-11-05T11:46:35.319Z,101677.06
2022-11-05T11:48:40.377Z,101686.03
2022-11-05T11:50:44.212Z,101679.91
2022-11-05T11:52:45.667Z,101681.38
2022-11-05T11:54:47.242Z,101682.44
2022-11-05T11:56:48.769Z,101681.66
2022-11-05T11:58:52.650Z,101674.81
2022-11-05T12:01:03.777Z,101680.34
2022-11-05T12:03:19.598Z,101678.91
2022-11-05T12:05:36.627Z,101682.06
2022-11-05T12:07:40.759Z,101688.63
2022-11-05T12:09:54.391Z,101682.44
2022-11-05T12:12:07.440Z,101689.81
2022-11-05T12:14:32.432Z,101689.97
2022-11-05T12:17:11.745Z,101692.00
2022-11-05T12:19:28.264Z,101690.25
2022-11-05T12:21:51.422Z,101687.63
2022-11-05T12:23:59.810Z,101695.78
2022-11-05T12:26:24.657Z,101694.91
2022-11-05T12:29:17.197Z,101683.41
2022-11-05T12:31:44.339Z,101699.41
2022-11-05T12:34:00.965Z,101696.84
2022-11-05T12:36:21.193Z,101701.50
2022-11-05T12:38:43.835Z,101693.72
2022-11-05T12:41:09.526Z,101696.44
2022-11-05T12:43:19.382Z,101691.22
2022-11-05T12:45:50.045Z,101696.44
2022-11-05T12:48:01.377Z,101697.31
2022-11-05T12:50:10.577Z,101687.69
2022-11-05T12:52:30.201Z,101692.16
2022-11-05T12:55:07.160Z,101686.97
2022-11-05T12:57:13.202Z,101690.50
2022-11-05T12:59:41.111Z,101689.50
2022-11-05T13:01:49.054Z,101685.94
2022-11-05T13:03:57.619Z,101688.59
2022-11-05T13:06:07.574Z,101690.38
2022-11-05T13:08:13.752Z,101686.88
2022-11-05T13:10:34.405Z,101678.88
2022-11-05T13:12:41.131Z,101685.09
2022-11-05T13:14:48.361Z,101687.81
2022-11-05T13:16:54.419Z,101684.31
2022-11-05T13:19:02.800Z,101685.22
2022-11-05T13:21:06.382Z,101683.56
2022-11-05T13:23:17.477Z,101680.97
2022-11-05T13:25:31.335Z,101682.81
2022-11-05T13:27:48.713Z,101675.91
2022-11-05T13:29:54.881Z,101673.38
2022-11-05T13:32:06.846Z,101668.19
2022-11-05T13:34:13.188Z,101672.66
2022-11-05T13:36:42.827Z,101670.97
2022-11-05T13:39:07.061Z,101671.03
2022-11-05T13:41:24.129Z,101673.75
2022-11-05T13:43:36.495Z,101672.03
2022-11-05T13:46:15.465Z,101672.00
2022-11-05T13:48:38.467Z,101679.03
2022-11-05T13:50:58.591Z,101675.50
2022-11-05T13:53:22.014Z,101675.50
2022-11-05T13:55:51.220Z,101679.91
2022-11-05T13:58:30.395Z,101679.06
2022-11-05T14:00:57.930Z,101682.66
2022-11-05T14:03:03.889Z,101684.53
2022-11-05T14:05:07.185Z,101681.97
2022-11-05T14:07:23.613Z,101680.22
2022-11-05T14:09:27.394Z,101682.84
2022-11-05T14:11:35.024Z,101689.00
2022-11-05T14:13:42.581Z,101684.66
2022-11-05T14:16:02.799Z,101684.66
2022-11-05T14:18:41.868Z,101685.59
2022-11-05T14:20:56.499Z,101688.34
2022-11-05T14:23:25.834Z,101669.94
2022-11-05T14:25:27.436Z,101674.38
2022-11-05T14:27:28.815Z,101677.88
2022-11-05T14:29:41.742Z,101670.75
2022-11-05T14:32:09.155Z,101673.28
2022-11-05T14:34:11.045Z,101677.72
2022-11-05T14:36:21.360Z,101682.13
2022-11-05T14:38:26.112Z,101688.41
2022-11-05T14:40:33.644Z,101685.88
2022-11-05T14:42:35.732Z,101675.38
2022-11-05T14:44:55.024Z,101688.59
2022-11-05T14:47:00.303Z,101688.59
2022-11-05T14:49:09.058Z,101681.50
2022-11-05T14:51:38.269Z,101682.47
2022-11-05T14:53:40.716Z,101684.28
2022-11-05T14:55:43.638Z,101677.22
2022-11-05T14:57:48.347Z,101672.00
2022-11-05T14:59:57.020Z,101675.56
2022-11-05T15:02:11.726Z,101675.69
2022-11-05T15:04:35.717Z,101680.97
2022-11-05T15:06:37.251Z,101682.81
2022-11-05T15:08:56.930Z,101688.16
2022-11-05T15:11:11.294Z,101678.41
2022-11-05T15:13:35.458Z,101676.63
2022-11-05T15:15:47.088Z,101673.19
2022-11-05T15:17:53.034Z,101680.25
2022-11-05T15:19:54.701Z,101668.00
2022-11-05T15:21:59.530Z,101671.66
2022-11-05T15:24:02.407Z,101666.44
2022-11-05T15:26:22.053Z,101670.88
2022-11-05T15:28:44.385Z,101663.91
2022-11-05T15:31:04.793Z,101658.66
2022-11-05T15:33:20.924Z,101657.91
2022-11-05T15:35:24.716Z,101660.59
2022-11-05T15:37:27.375Z,101666.78
2022-11-05T15:39:43.370Z,101671.22
2022-11-05T15:41:44.825Z,101672.19
2022-11-05T15:43:48.351Z,101675.78
2022-11-05T15:46:14.130Z,101681.94
2022-11-05T15:48:19.695Z,101674.06
2022-11-05T15:50:21.331Z,101676.78
2022-11-05T15:52:37.297Z,101687.44
2022-11-05T15:54:39.069Z,101688.31
2022-11-05T15:56:50.462Z,101690.97
2022-11-05T15:59:00.342Z,101679.50
2022-11-05T16:01:01.820Z,101677.78
2022-11-05T16:03:40.177Z,101684.91
2022-11-05T16:05:45.063Z,101681.53
2022-11-05T16:07:47.613Z,101679.72
2022-11-05T16:09:56.080Z,101679.69
2022-11-05T16:12:19.402Z,101676.16
2022-11-05T16:14:20.910Z,101678.81
2022-11-05T16:16:32.747Z,101684.13
2022-11-05T16:18:37.651Z,101691.25
2022-11-05T16:20:39.277Z,101688.63
2022-11-05T16:22:45.448Z,101697.47
2022-11-05T16:24:47.210Z,101699.28
2022-11-05T16:27:03.452Z,101696.69
2022-11-05T16:29:13.153Z,101695.81
2022-11-05T16:31:14.644Z,101692.31
2022-11-05T16:33:16.073Z,101694.09
2022-11-05T16:35:23.288Z,101692.31
2022-11-05T16:37:26.767Z,101696.75
2022-11-05T16:39:28.171Z,101692.41
2022-11-05T16:41:29.623Z,101683.63
2022-11-05T16:43:31.134Z,101699.50
2022-11-05T16:45:41.338Z,101694.25
2022-11-05T16:47:44.503Z,101699.59
2022-11-05T16:49:47.970Z,101697.81
2022-11-05T16:51:49.404Z,101698.72
2022-11-05T16:53:50.843Z,101703.16
2022-11-05T16:55:52.391Z,101710.22
2022-11-05T16:57:55.353Z,101708.44
2022-11-05T16:59:59.149Z,101707.56
2022-11-05T17:02:00.829Z,101699.69
2022-11-05T17:04:02.352Z,101698.81
2022-11-05T17:06:03.907Z,101705.00
2022-11-05T17:08:05.497Z,101706.78
2022-11-05T17:10:07.348Z,101708.53
2022-11-05T17:12:12.605Z,101712.03
2022-11-05T17:14:14.130Z,101706.75
2022-11-05T17:16:17.276Z,101717.31
2022-11-05T17:18:19.678Z,101715.63
2022-11-05T17:20:40.280Z,101717.41
2022-11-05T17:22:42.364Z,101711.28
2022-11-05T17:24:43.884Z,101699.84
2022-11-05T17:26:45.404Z,101698.13
2022-11-05T17:28:46.838Z,101703.41
2022-11-05T17:30:52.201Z,101711.31
2022-11-05T17:32:54.762Z,101719.25
2022-11-05T17:34:56.340Z,101710.53
2022-11-05T17:36:57.759Z,101709.69
2022-11-05T17:38:59.195Z,101715.00
2022-11-05T17:41:00.649Z,101705.28
2022-11-05T17:43:02.390Z,101707.94
2022-11-05T17:45:04.162Z,101699.16
2022-11-05T17:47:05.590Z,101704.44
2022-11-05T17:49:07.032Z,101707.94
2022-11-05T17:51:10.130Z,101701.81
2022-11-05T17:53:13.027Z,101699.16
2022-11-05T17:55:17.689Z,101706.19
2022-11-05T17:57:19.201Z,101699.19
2022-11-05T17:59:20.726Z,101695.66
2022-11-05T18:01:30.818Z,101692.16
2022-11-05T18:03:32.807Z,101695.69
2022-11-05T18:05:34.927Z,101691.28
2022-11-05T18:07:36.856Z,101689.56
2022-11-05T18:09:38.308Z,101692.19
2022-11-05T18:11:40.307Z,101695.75
2022-11-05T18:13:42.441Z,101691.38
2022-11-05T18:15:44.614Z,101687.03
2022-11-05T18:17:46.347Z,101689.66
2022-11-05T18:19:47.828Z,101690.56
2022-11-05T18:21:49.271Z,101694.09
2022-11-05T18:23:50.865Z,101692.34
2022-11-05T18:25:53.037Z,101683.56
2022-11-05T18:27:54.506Z,101687.94
2022-11-05T18:29:55.981Z,101687.94
2022-11-05T18:31:57.474Z,101696.72
2022-11-05T18:33:59.590Z,101687.94
2022-11-05T18:36:01.022Z,101684.44
2022-11-05T18:38:02.439Z,101693.22
2022-11-05T18:40:04.414Z,101694.09
2022-11-05T18:42:06.066Z,101687.06
2022-11-05T18:44:07.612Z,101690.59
2022-11-05T18:46:23.773Z,101692.41
2022-11-05T18:48:31.947Z,101685.38
2022-11-05T18:50:33.388Z,101687.09
2022-11-05T18:52:35.501Z,101676.53
2022-11-05T18:54:36.973Z,101681.81
2022-11-05T18:56:44.704Z,101680.03
2022-11-05T18:58:46.596Z,101680.94
2022-11-05T19:00:48.016Z,101676.56
2022-11-05T19:02:49.541Z,101678.34
2022-11-05T19:05:22.023Z,101676.59
2022-11-05T19:07:12.708Z,101675.72
2022-11-05T19:09:14.806Z,101683.63
2022-11-05T19:11:19.352Z,101681.03
2022-11-05T19:13:20.780Z,101683.66
2022-11-05T19:15:22.228Z,101686.34
2022-11-05T19:17:23.831Z,101681.91
2022-11-05T19:19:25.528Z,101682.78
2022-11-05T19:21:27.684Z,101681.94
2022-11-05T19:23:30.505Z,101684.59
2022-11-05T19:25:32.039Z,101685.50
2022-11-05T19:27:35.845Z,101678.50
2022-11-05T19:29:37.355Z,101681.16
2022-11-05T19:31:38.777Z,101682.88
2022-11-05T19:33:41.621Z,101684.63
2022-11-05T19:35:43.237Z,101681.97
2022-11-05T19:37:45.062Z,101682.00
2022-11-05T19:39:46.503Z,101676.75
2022-11-05T19:41:48.962Z,101674.06
2022-11-05T19:43:50.726Z,101666.19
2022-11-05T19:45:52.170Z,101660.91
2022-11-05T19:47:53.896Z,101664.44
2022-11-05T19:49:55.779Z,101660.06
2022-11-05T19:51:57.315Z,101667.09
2022-11-05T19:54:00.897Z,101667.97
2022-11-05T19:56:07.655Z,101668.81
2022-11-05T19:58:09.856Z,101669.72
2022-11-05T20:00:12.204Z,101666.19
2022-11-05T20:02:16.432Z,101668.81
2022-11-05T20:04:18.285Z,101671.44
2022-11-05T20:06:28.620Z,101665.28
2022-11-05T20:08:30.388Z,101657.41
2022-11-05T20:10:32.327Z,101668.81
2022-11-05T20:12:35.465Z,101670.56
2022-11-05T20:14:37.129Z,101667.06
2022-11-05T20:16:39.125Z,101668.84
2022-11-05T20:18:40.811Z,101664.50
2022-11-05T20:20:46.656Z,101667.97
2022-11-05T20:22:48.171Z,101677.63
2022-11-05T20:24:50.265Z,101671.50
2022-11-05T20:26:53.618Z,101667.09
2022-11-05T20:28:55.394Z,101665.38
2022-11-05T20:30:57.850Z,101655.72
2022-11-05T20:32:59.379Z,101662.72
2022-11-05T20:35:01.116Z,101659.19
2022-11-05T20:37:02.749Z,101658.31
2022-11-05T20:39:05.637Z,101665.31
2022-11-05T20:41:11.893Z,101664.44
2022-11-05T20:43:13.513Z,101665.34
2022-11-05T20:45:15.284Z,101665.38
2022-11-05T20:47:17.076Z,101673.25
2022-11-05T20:49:24.035Z,101668.88
2022-11-05T20:51:26.995Z,101674.13
2022-11-05T20:53:28.711Z,101673.22
2022-11-05T20:55:30.189Z,101673.22
2022-11-05T20:57:31.918Z,101679.34
2022-11-05T20:59:33.480Z,101671.44
2022-11-05T21:01:35.630Z,101666.19
2022-11-05T21:03:37.548Z,101665.31
2022-11-05T21:05:38.983Z,101667.06
2022-11-05T21:07:40.490Z,101670.59
2022-11-05T21:09:41.959Z,101661.81
2022-11-05T21:12:02.022Z,101663.59
2022-11-05T21:14:03.541Z,101662.72
2022-11-05T21:16:07.422Z,101661.84
2022-11-05T21:18:09.209Z,101656.56
2022-11-05T21:20:11.052Z,101660.09
2022-11-05T21:22:15.410Z,101662.72
2022-11-05T21:24:17.065Z,101660.97
2022-11-05T21:26:18.671Z,101660.09
2022-11-05T21:28:20.156Z,101650.44
2022-11-05T21:30:21.767Z,101654.81
2022-11-05T21:32:23.184Z,101654.81
2022-11-05T21:34:24.849Z,101650.44
2022-11-05T21:36:26.299Z,101648.66
2022-11-05T21:38:27.749Z,101640.75
2022-11-05T21:40:29.182Z,101640.78
2022-11-05T21:42:30.706Z,101646.97
2022-11-05T21:44:32.178Z,101637.34
2022-11-05T21:46:33.706Z,101639.13
2022-11-05T21:48:36.271Z,101630.34
2022-11-05T21:51:00.330Z,101627.72
2022-11-05T21:53:20.124Z,101629.53
2022-11-05T21:55:39.906Z,101636.56
2022-11-05T21:58:00.047Z,101628.66
2022-11-05T22:00:02.008Z,101626.91
2022-11-05T22:02:04.720Z,101626.91
2022-11-05T22:04:06.355Z,101626.91
2022-11-05T22:06:07.782Z,101628.66
2022-11-05T22:08:09.504Z,101617.25
2022-11-05T22:10:16.117Z,101621.66
2022-11-05T22:12:18.128Z,101622.53
2022-11-05T22:14:19.823Z,101616.41
2022-11-05T22:16:21.373Z,101613.75
2022-11-05T22:18:22.852Z,101611.09
2022-11-05T22:20:24.268Z,101611.97
2022-11-05T22:22:25.703Z,101608.47
2022-11-05T22:24:28.230Z,101611.06
2022-11-05T22:26:29.657Z,101605.78
2022-11-05T22:28:31.087Z,101609.28
2022-11-05T22:30:36.614Z,101613.69
2022-11-05T22:32:38.963Z,101604.91
2022-11-05T22:34:40.528Z,101609.28
2022-11-05T22:36:42.009Z,101603.16
2022-11-05T22:38:44.102Z,101604.03
2022-11-05T22:40:45.555Z,101599.63
2022-11-05T22:42:47.056Z,101597.88
2022-11-05T22:44:48.740Z,101593.47
2022-11-05T22:46:50.783Z,101597.88
2022-11-05T22:48:52.952Z,101582.91
2022-11-05T22:50:54.363Z,101587.31
2022-11-05T22:52:55.797Z,101583.81
2022-11-05T22:54:57.199Z,101585.56
2022-11-05T22:56:58.624Z,101589.97
2022-11-05T22:59:00.063Z,101588.19
2022-11-05T23:01:02.296Z,101594.31
2022-11-05T23:03:04.029Z,101587.31
2022-11-05T23:05:05.779Z,101584.66
2022-11-05T23:07:27.968Z,101588.19
2022-11-05T23:09:53.146Z,101593.44
2022-11-05T23:11:54.644Z,101580.28
2022-11-05T23:13:56.505Z,101582.00
2022-11-05T23:16:16.676Z,101579.38
2022-11-05T23:18:36.422Z,101582.03
2022-11-05T23:20:56.311Z,101586.41
2022-11-05T23:23:16.734Z,101589.03
2022-11-05T23:25:21.157Z,101584.66
2022-11-05T23:27:22.935Z,101578.50
2022-11-05T23:29:26.733Z,101576.75
2022-11-05T23:31:46.537Z,101578.53
2022-11-05T23:33:47.964Z,101577.63
2022-11-05T23:36:07.745Z,101571.47
2022-11-05T23:38:28.076Z,101572.31
2022-11-05T23:40:51.786Z,101565.28
2022-11-05T23:43:11.793Z,101564.41
2022-11-05T23:45:51.667Z,101567.03
2022-11-05T23:48:11.561Z,101562.63
2022-11-05T23:50:13.348Z,101561.72
2022-11-05T23:52:14.779Z,101561.72
2022-11-05T23:54:16.333Z,101554.66
2022-11-05T23:56:17.853Z,101554.66
2022-11-05T23:58:19.891Z,101557.28
